createdAt,value
2022-09-21T04:57:21.083Z,1.92
2022-09-21T04:59:47.955Z,2.03
2022-09-21T05:02:14.879Z,2.00
2022-09-21T05:05:02.229Z,2.10
2022-09-21T05:07:29.390Z,2.38
2022-09-21T05:10:04.778Z,2.38
2022-09-21T05:12:33.521Z,2.05
2022-09-21T05:29:50.888Z,1.67
2022-09-21T05:32:44.901Z,2.72
2022-09-21T05:35:44.794Z,2.10
2022-09-21T05:38:21.131Z,2.05
2022-09-21T05:40:49.659Z,2.15
2022-09-21T05:43:17.528Z,2.42
2022-09-21T06:01:51.472Z,2.20
2022-09-21T06:04:18.850Z,2.35
2022-09-21T06:06:46.493Z,2.78
2022-09-21T06:09:14.415Z,2.67
2022-09-21T06:11:41.704Z,3.40
2022-09-21T06:14:38.572Z,2.80
2022-09-21T07:03:39.476Z,4.65
2022-09-21T07:06:07.324Z,4.80
2022-09-21T07:13:53.835Z,4.03
2022-09-21T07:16:21.086Z,4.00
2022-09-21T07:18:48.512Z,3.55
2022-09-21T07:56:40.730Z,1.88
2022-09-21T07:59:11.084Z,1.88
2022-09-21T08:01:40.694Z,1.70
2022-09-21T08:04:09.990Z,1.60
2022-09-21T08:06:52.357Z,1.60
2022-09-21T08:09:19.503Z,1.80
2022-09-21T08:14:39.755Z,1.50
2022-09-21T08:17:09.977Z,1.38
2022-09-21T08:19:40.306Z,0.68
2022-09-21T08:24:35.268Z,0.55
2022-09-21T08:27:02.208Z,0.80
2022-09-21T08:29:29.727Z,0.60
2022-09-21T08:34:35.777Z,0.70
2022-09-21T08:37:03.097Z,0.45
2022-09-21T08:39:29.743Z,0.50
2022-09-21T08:42:12.720Z,0.70
2022-09-21T08:44:44.277Z,0.20
2022-09-21T08:47:40.049Z,0.40
2022-09-21T09:08:11.206Z,0.32
2022-09-21T09:10:50.143Z,0.30
2022-09-21T09:13:22.914Z,0.30
2022-09-21T09:16:16.670Z,0.20
2022-09-21T09:18:54.577Z,0.30
2022-09-21T09:21:29.920Z,0.35
2022-09-21T09:29:46.662Z,0.20
2022-09-21T09:32:16.286Z,0.10
2022-09-21T09:34:55.015Z,0.30
2022-09-21T09:37:30.554Z,0.30
2022-09-21T09:40:00.660Z,0.30
2022-09-21T09:42:52.937Z,0.22
2022-09-21T09:48:37.777Z,0.30
2022-09-21T09:51:12.150Z,0.30
2022-09-21T09:53:39.878Z,0.30
2022-09-21T09:56:10.647Z,0.20
2022-09-21T09:58:47.473Z,0.20
2022-09-21T10:01:42.505Z,0.30
2022-09-21T10:04:12.019Z,0.20
2022-09-21T10:09:36.168Z,0.20
2022-09-21T10:12:18.767Z,0.30
2022-09-21T10:14:52.040Z,0.20
2022-09-21T10:17:19.673Z,0.10
2022-09-21T10:20:03.534Z,0.08
2022-09-21T10:22:30.588Z,0.17
2022-09-21T10:25:05.718Z,0.10
2022-09-21T10:42:03.534Z,0.20
2022-09-21T10:44:40.189Z,0.20
2022-09-21T10:47:40.313Z,0.13
2022-09-21T10:50:30.038Z,0.88
2022-09-21T10:53:10.537Z,0.43
2022-09-21T10:55:43.991Z,0.20
2022-09-21T11:05:06.636Z,0.10
2022-09-21T11:07:40.967Z,0.10
2022-09-21T11:10:50.416Z,0.20
2022-09-21T11:13:27.803Z,0.10
2022-09-21T11:16:15.738Z,0.20
2022-09-21T11:19:13.240Z,0.10
2022-09-21T11:27:33.213Z,0.30
2022-09-21T11:30:02.823Z,0.40
2022-09-21T11:32:57.097Z,0.20
2022-09-21T11:36:25.458Z,0.20
2022-09-21T11:39:01.742Z,0.10
2022-09-21T11:41:35.163Z,0.30
2022-09-21T11:49:26.896Z,0.13
2022-09-21T11:52:15.873Z,0.20
2022-09-21T11:55:04.676Z,0.20
2022-09-21T11:57:40.934Z,0.20
2022-09-21T12:00:21.071Z,0.00
2022-09-21T12:03:12.306Z,0.13
2022-09-21T12:11:29.582Z,0.28
2022-09-21T12:14:14.010Z,0.20
2022-09-21T12:17:15.244Z,0.08
2022-09-21T12:20:26.179Z,0.20
2022-09-21T12:23:01.000Z,0.10
2022-09-21T12:25:51.680Z,0.20
2022-09-21T12:44:22.096Z,0.25
2022-09-21T12:47:11.635Z,0.20
2022-09-21T12:49:43.231Z,0.13
2022-09-21T12:52:25.259Z,0.10
2022-09-21T12:55:24.274Z,0.20
2022-09-21T12:58:16.783Z,0.22
2022-09-21T13:16:41.102Z,0.10
2022-09-21T13:19:21.100Z,0.10
2022-09-21T13:22:24.946Z,0.10
2022-09-21T13:25:03.146Z,0.10
2022-09-21T13:28:01.671Z,0.20
2022-09-21T13:30:38.212Z,0.10
2022-09-21T13:38:22.724Z,0.30
2022-09-21T13:41:20.130Z,0.20
2022-09-21T13:43:58.612Z,0.15
2022-09-21T13:46:54.743Z,0.15
2022-09-21T13:49:43.838Z,0.10
2022-09-21T13:52:14.356Z,0.13
2022-09-21T13:58:05.769Z,0.10
2022-09-21T14:01:03.932Z,0.08
2022-09-21T14:03:46.915Z,0.20
2022-09-21T14:06:18.858Z,0.20
2022-09-21T14:09:26.378Z,0.10
2022-09-21T14:12:06.322Z,0.17
2022-09-21T14:19:52.290Z,0.10
2022-09-21T14:23:15.911Z,0.10
2022-09-21T14:25:57.367Z,0.10
2022-09-21T14:28:37.653Z,0.10
2022-09-21T14:31:15.836Z,0.20
2022-09-21T14:42:40.921Z,0.10
2022-09-21T14:45:19.031Z,0.10
2022-09-21T14:48:02.345Z,0.15
2022-09-21T14:50:50.791Z,0.10
2022-09-21T14:53:38.806Z,0.10
2022-09-21T14:56:40.044Z,0.00
2022-09-21T15:12:57.849Z,0.10
2022-09-21T15:15:52.976Z,0.20
2022-09-21T15:18:22.413Z,0.13
2022-09-21T15:21:32.459Z,0.08
2022-09-21T15:24:09.570Z,0.10
2022-09-21T15:34:14.943Z,0.20
2022-09-21T15:39:22.903Z,0.10
2022-09-21T15:42:02.071Z,0.10
2022-09-21T15:44:33.399Z,0.08
2022-09-21T15:47:25.924Z,0.30
2022-09-21T15:49:56.063Z,0.10
2022-09-21T15:56:43.774Z,0.10
2022-09-21T15:59:19.378Z,0.17
2022-09-21T16:01:52.839Z,0.40
2022-09-21T16:04:51.294Z,0.20
2022-09-21T16:07:32.411Z,0.17
2022-09-21T16:10:00.624Z,0.10
2022-09-21T16:12:42.879Z,0.10
2022-09-21T18:50:02.474Z,0.60
2022-09-21T18:52:32.442Z,0.77
2022-09-21T18:55:00.533Z,0.63
2022-09-21T18:57:47.824Z,1.27
2022-09-21T19:00:15.352Z,0.80
2022-09-21T19:02:58.995Z,0.50
2022-09-21T19:05:29.267Z,0.40
2022-09-21T20:23:57.850Z,1.20
2022-09-21T20:26:26.996Z,0.85
2022-09-21T20:29:12.823Z,0.82
2022-09-21T20:31:39.593Z,0.80
2022-09-21T20:34:06.323Z,0.70
2022-09-21T20:36:33.226Z,0.90
2022-09-21T20:39:00.478Z,0.70
